Piacabucu, Brazil
Current Conditions -  °F | °C
As of 7:00 AM on Wednesday 26 Nov 2014 (Local Time) from SBAR Reporting Station
Scattered Clouds Scattered Clouds  
Wind Chill: 81°   Ceiling: Unl
Heat Index: 83°   Visibility: 6mi
Dew Point: 68°   Wind: 13mph
Humidity: 65%   Direction: 110°ESE
Pressure: 29.94"   Gusts: NA
Location:  10.41°S, 36.43°W
Report Text: SBAR 261000Z 11011KT 9999 SCT015 27/20 Q1014
Loading
Personal Weather Stations






























Interactive Weather Map New forecast layout! Learn more

10-Day Weather Forecast

Advertisements
Track Severe Weather on mobile